WALL/BPN METAR and TAF weather

Enter ICAO airport designator
Station Type Date Time Source
WALL METAR 2021/03/06 04:00 UTC NOAA

WALL 060400Z 03006KT 9999 SCT020 31/26 Q1010


Station Type Date Time Source
WALL Decoded METAR 2021/03/06 04:00 UTC NOAA

Station name not available
Mar 05, 2021 - 11:00 PM EST / 2021.03.06 0400 UTC
Wind: from the NNE (030 degrees) at 7 MPH (6 KT):0
Visibility: greater than 7 mile(s):0
Sky conditions: partly cloudy
Temperature: 87 F (31 C)
Heat index: 99.7 F (37.6 C):1
Dew Point: 78 F (26 C)
Relative Humidity: 74%
Pressure (altimeter): 29.83 in. Hg (1010 hPa)
ob: WALL 060400Z 03006KT 9999 SCT020 31/26 Q1010
cycle: 4

Station Type Date Time Source
WALL TAF 2021/03/05 12:00 UTC NOAA

TAF WALL 051100Z 0512/0618 03004KT 9999 FEW020
BECMG 0512/0514 00000KT SCT018
TEMPO 0521/0524 FEW017CB SCT018
BECMG 0604/0606 04005KT
TEMPO 0606/0609 7000 -RA FEW017CB SCT018

Example: see airport list